Time;durP1;ratioP1;P1;durP2;ratioP2;P2;SDS_P1;SDS_P2;PMS_P1;PMS_P2;Temp;Humidity;BMP_temperature;BMP_pressure;BME280_temperature;BME280_humidity;BME280_pressure;Samples;Min_cycle;Max_cycle;Signal;HPM_P1;HPM_P2
2024/02/13 00:02:17;;;;;;;19.20;12.00;;;5.00;99.90;;;-141.84;100.00;119224.81;5040776;28;20709;-71
2024/02/13 00:04:46;;;;;;;18.87;12.13;;;5.00;99.90;;;-141.84;100.00;119224.81;5032315;28;20753;-71
2024/02/13 00:07:14;;;;;;;16.10;11.77;;;5.10;99.90;;;-141.84;100.00;119224.81;5040397;28;20310;-71
2024/02/13 00:09:44;;;;;;;19.00;12.07;;;5.10;99.90;;;-141.84;100.00;119224.81;5041539;28;20229;-72
2024/02/13 00:12:13;;;;;;;16.63;11.80;;;4.90;99.90;;;-141.84;100.00;119224.81;5042278;28;20256;-70
2024/02/13 00:14:44;;;;;;;17.17;11.30;;;5.20;99.90;;;-141.84;100.00;119224.81;5040078;28;20251;-71
2024/02/13 00:17:17;;;;;;;16.90;11.67;;;5.30;99.90;;;-141.84;100.00;119224.81;5020581;28;20605;-71
2024/02/13 00:19:45;;;;;;;16.73;11.90;;;5.40;99.90;;;-141.84;100.00;119224.81;5038604;28;20909;-71
2024/02/13 00:22:14;;;;;;;16.40;11.57;;;5.30;99.90;;;-141.84;100.00;119224.81;5044374;28;20308;-71
2024/02/13 00:24:43;;;;;;;19.87;11.67;;;5.40;99.90;;;-141.84;100.00;119224.81;5040909;28;20225;-70
2024/02/13 00:27:12;;;;;;;15.07;10.97;;;5.50;99.90;;;-141.84;100.00;119224.81;5038300;28;20244;-71
2024/02/13 00:29:40;;;;;;;15.70;11.50;;;5.50;99.90;;;-141.84;100.00;119224.81;5039470;28;20670;-70
2024/02/13 00:32:09;;;;;;;16.87;11.70;;;5.50;99.90;;;-141.84;100.00;119224.81;5044707;28;20220;-71
2024/02/13 00:34:38;;;;;;;17.30;11.83;;;5.50;99.90;;;-141.84;100.00;119224.81;5046955;28;20468;-71
2024/02/13 00:37:08;;;;;;;16.80;10.60;;;5.50;99.90;;;-141.84;100.00;119224.81;5044797;28;20226;-70
2024/02/13 00:39:37;;;;;;;14.57;11.07;;;5.50;99.90;;;-141.84;100.00;119224.81;5040167;28;20229;-70
2024/02/13 00:42:05;;;;;;;17.47;11.03;;;5.40;99.90;;;-141.84;100.00;119224.81;5039202;28;20670;-71
2024/02/13 00:44:36;;;;;;;18.97;11.10;;;5.40;99.90;;;-141.84;100.00;119224.81;5038056;28;20604;-70
2024/02/13 00:47:05;;;;;;;16.17;11.27;;;5.50;99.90;;;-141.84;100.00;119224.81;5045730;28;20699;-73
2024/02/13 00:49:35;;;;;;;16.67;11.40;;;5.50;99.90;;;-141.84;100.00;119224.81;5038312;28;20264;-71
2024/02/13 00:52:04;;;;;;;18.43;11.43;;;5.50;99.90;;;-141.84;100.00;119224.81;5038296;28;20291;-72
2024/02/13 00:54:33;;;;;;;17.87;12.10;;;5.60;99.90;;;-141.84;100.00;119224.81;5041167;28;20670;-71
2024/02/13 00:57:01;;;;;;;17.80;12.33;;;5.60;99.90;;;-141.84;100.00;119224.81;5041379;28;20243;-71
2024/02/13 00:59:30;;;;;;;16.37;12.50;;;5.70;99.90;;;-141.84;100.00;119224.81;5040154;28;20712;-71
2024/02/13 01:01:59;;;;;;;15.87;11.20;;;5.80;99.90;;;-141.84;100.00;117889.44;5037413;28;20230;-71
2024/02/13 01:04:27;;;;;;;18.13;12.20;;;5.80;99.90;;;-141.84;100.00;116556.59;5038332;28;20494;-71
2024/02/13 01:06:57;;;;;;;18.73;12.23;;;5.90;99.90;;;-141.84;100.00;115757.06;5039209;28;20774;-71
2024/02/13 01:09:25;;;;;;;16.57;11.67;;;6.00;99.90;;;-141.84;100.00;113892.16;5040669;28;20190;-71
2024/02/13 01:11:53;;;;;;;15.87;11.47;;;6.10;99.90;;;-141.84;100.00;113625.81;5041382;28;20205;-71
2024/02/13 01:14:22;;;;;;;17.03;11.37;;;6.10;99.90;;;-141.84;100.00;107238.72;5032472;28;20221;-70
2024/02/13 01:16:50;;;;;;;16.40;11.63;;;6.20;99.90;;;-141.84;100.00;108568.56;5043425;28;20253;-72
2024/02/13 01:19:19;;;;;;;13.67;10.87;;;6.30;99.90;;;-141.84;98.43;103517.56;5038332;28;20245;-71
2024/02/13 01:21:47;;;;;;;17.60;11.27;;;6.30;99.90;;;-141.84;99.51;104048.94;5045051;28;20775;-69
2024/02/13 01:24:18;;;;;;;16.00;11.03;;;6.30;99.90;;;-141.84;98.25;102720.59;5044834;28;20609;-70
2024/02/13 01:26:46;;;;;;;15.50;11.13;;;6.30;99.90;;;-141.84;99.34;103517.56;5037197;28;20258;-71
2024/02/13 01:29:14;;;;;;;15.40;10.77;;;6.30;99.90;;;-141.84;100.00;106972.81;5044151;28;20228;-71
2024/02/13 01:31:46;;;;;;;14.73;10.57;;;6.30;99.90;;;-141.84;100.00;105111.94;5044224;28;20225;-70
2024/02/13 01:34:14;;;;;;;15.17;10.57;;;6.30;99.90;;;-141.84;99.01;103517.56;5041716;28;20312;-71
2024/02/13 01:36:43;;;;;;;13.87;10.90;;;6.30;99.90;;;-141.84;99.42;103783.25;5039336;28;20225;-71
2024/02/13 01:39:11;;;;;;;14.10;10.27;;;6.30;99.90;;;-141.84;98.96;103783.25;5042836;28;20300;-70
2024/02/13 01:41:42;;;;;;;13.57;10.20;;;6.30;99.90;;;-141.84;94.58;94494.59;5041959;28;20210;-70
2024/02/13 01:44:10;;;;;;;15.40;9.77;;;6.30;99.90;;;-141.84;94.18;91314.81;5040786;28;20699;-71
2024/02/13 01:46:39;;;;;;;14.40;10.30;;;6.30;99.90;;;-141.84;94.90;94759.69;5041792;28;20222;-71
2024/02/13 01:49:08;;;;;;;14.70;10.90;;;6.30;99.90;;;-141.84;92.12;86549.84;5051627;28;20223;-70
2024/02/13 01:51:40;;;;;;;13.47;10.07;;;6.40;99.90;;;-141.84;93.73;90785.09;5044648;28;20225;-71
2024/02/13 01:54:11;;;;;;;12.43;9.63;;;6.40;99.90;;;-141.84;95.98;96085.44;5043402;28;20189;-69
2024/02/13 01:56:42;;;;;;;14.30;9.50;;;6.40;99.90;;;-141.84;95.85;96881.06;5042404;28;20218;-71
2024/02/13 01:59:14;;;;;;;13.33;9.87;;;6.40;99.90;;;-141.84;94.15;93964.47;5040869;28;20226;-71
2024/02/13 02:01:43;;;;;;;11.37;9.10;;;6.40;99.90;;;-141.84;92.35;86814.44;5042844;28;20724;-70
2024/02/13 02:04:13;;;;;;;12.50;8.63;;;6.50;99.90;;;-141.84;93.82;91049.97;5044098;28;20279;-70
2024/02/13 02:06:42;;;;;;;11.13;8.77;;;6.40;99.90;;;-141.84;93.94;91844.63;5043571;28;20255;-71
2024/02/13 02:09:11;;;;;;;14.07;9.17;;;6.40;99.90;;;-141.84;94.83;93699.44;5041277;28;20204;-69
2024/02/13 02:11:40;;;;;;;13.43;8.70;;;6.30;99.90;;;-141.84;96.12;96881.06;5045551;28;20229;-71
2024/02/13 02:14:10;;;;;;;10.13;8.20;;;6.30;99.90;;;-141.84;95.46;95555.09;5050142;28;20635;-72
2024/02/13 02:16:38;;;;;;;11.67;9.20;;;6.30;99.90;;;-141.84;97.42;99799.78;5043184;28;20339;-71
2024/02/13 02:19:07;;;;;;;11.10;8.53;;;6.30;99.90;;;-141.84;98.92;102720.59;5043736;28;20253;-71
2024/02/13 02:21:35;;;;;;;11.77;8.60;;;6.20;99.90;;;-141.84;100.00;109100.59;5042352;28;20221;-71
2024/02/13 02:24:06;;;;;;;12.63;8.30;;;6.20;99.90;;;-141.84;100.00;109898.81;5041474;28;20266;-72
2024/02/13 02:26:36;;;;;;;10.87;8.50;;;6.10;99.90;;;-141.84;100.00;112560.63;5042617;28;20218;-72
2024/02/13 02:29:05;;;;;;;11.33;8.97;;;6.10;99.90;;;-141.84;100.00;114424.91;5031334;28;20261;-71
2024/02/13 02:31:33;;;;;;;11.57;8.43;;;6.00;99.90;;;-141.84;100.00;113625.81;5040854;28;20221;-71
2024/02/13 02:34:02;;;;;;;9.97;7.90;;;6.00;99.90;;;-141.84;100.00;110164.91;5033462;28;20316;-71
2024/02/13 02:36:32;;;;;;;12.80;8.53;;;5.90;99.90;;;-141.84;100.00;111761.88;5040175;28;20625;-72
2024/02/13 02:39:00;;;;;;;10.93;8.13;;;5.90;99.90;;;-141.84;100.00;113359.50;5042432;28;20682;-71
2024/02/13 02:41:28;;;;;;;11.70;7.50;;;5.90;99.90;;;-141.84;100.00;113892.16;5041797;28;20262;-71
2024/02/13 02:43:58;;;;;;;10.30;8.10;;;5.80;99.90;;;-141.84;100.00;114691.31;5041156;28;20226;-71
2024/02/13 02:46:26;;;;;;;10.17;8.00;;;5.90;99.90;;;-141.84;100.00;113892.16;5043026;28;20337;-71
2024/02/13 02:48:54;;;;;;;11.47;8.10;;;5.90;99.90;;;-141.84;100.00;114158.53;5041662;28;20303;-71
2024/02/13 02:51:23;;;;;;;9.90;7.67;;;5.90;99.90;;;-141.84;100.00;112826.88;5040130;28;20186;-71
2024/02/13 02:53:52;;;;;;;9.10;7.37;;;5.90;99.90;;;-141.84;100.00;113359.50;5048345;28;20194;-71
2024/02/13 02:56:21;;;;;;;9.87;7.97;;;5.80;99.90;;;-141.84;100.00;113359.50;5051006;28;20447;-72
2024/02/13 02:58:50;;;;;;;8.70;7.20;;;5.90;99.90;;;-141.84;100.00;112028.13;5042658;28;20621;-70
2024/02/13 03:01:20;;;;;;;11.10;7.50;;;5.70;99.90;;;-141.84;100.00;113093.19;5042185;28;20268;-70
2024/02/13 03:03:50;;;;;;;9.80;7.43;;;5.60;99.90;;;-141.84;100.00;112826.88;5035210;28;20241;-70
2024/02/13 03:06:18;;;;;;;8.33;7.20;;;5.60;99.90;;;-141.84;100.00;114424.91;5042555;28;20229;-72
2024/02/13 03:08:49;;;;;;;9.03;7.00;;;5.40;99.90;;;-141.84;100.00;113625.81;5042555;28;20194;-69
2024/02/13 03:11:17;;;;;;;8.93;7.23;;;5.50;99.90;;;-141.84;100.00;113892.16;5034981;28;20214;-70
2024/02/13 03:13:45;;;;;;;10.33;7.87;;;5.40;99.90;;;-141.84;100.00;114424.91;5044757;28;20291;-70
2024/02/13 03:16:14;;;;;;;9.20;6.90;;;5.30;99.90;;;-141.84;100.00;115224.16;5040937;28;20229;-71
2024/02/13 03:18:43;;;;;;;9.57;7.20;;;5.30;99.90;;;-141.84;100.00;114691.31;5042150;28;20224;-71
2024/02/13 03:21:12;;;;;;;9.60;6.93;;;5.20;99.90;;;-141.84;100.00;114691.31;5042046;28;20227;-70
2024/02/13 03:23:40;;;;;;;9.07;7.27;;;5.20;99.90;;;-141.84;100.00;109898.81;5045153;28;20756;-72
2024/02/13 03:26:08;;;;;;;9.80;7.40;;;5.30;99.90;;;-141.84;100.00;106706.94;5045938;28;20592;-70
2024/02/13 03:28:37;;;;;;;8.63;6.63;;;5.40;99.90;;;-141.84;100.00;104846.16;5052953;28;20715;-71
2024/02/13 03:31:05;;;;;;;8.87;6.93;;;5.30;99.90;;;-141.84;98.68;103251.88;5048642;28;20279;-71
2024/02/13 03:33:33;;;;;;;8.20;6.67;;;5.30;99.90;;;-141.84;99.10;102986.25;5039135;28;20787;-71
2024/02/13 03:36:04;;;;;;;7.67;6.37;;;5.40;99.90;;;-141.84;97.62;99268.97;5040946;28;20285;-71
2024/02/13 03:38:33;;;;;;;9.77;6.50;;;5.30;99.90;;;-141.84;100.00;105377.72;5042145;28;20233;-71
2024/02/13 03:41:02;;;;;;;7.43;6.60;;;5.30;99.90;;;-141.84;100.00;107504.66;5038588;28;20633;-71
2024/02/13 03:43:30;;;;;;;9.57;6.30;;;5.20;99.90;;;-141.84;99.00;102986.25;5041385;28;20332;-71
2024/02/13 03:45:58;;;;;;;7.27;6.03;;;5.20;99.90;;;-141.84;100.00;104846.16;5043252;28;20617;-70
2024/02/13 03:48:26;;;;;;;9.43;5.93;;;5.10;99.90;;;-141.84;100.00;106972.81;5042259;28;20229;-71
2024/02/13 03:50:55;;;;;;;8.40;6.07;;;5.00;99.90;;;-141.84;100.00;109898.81;5041098;28;20190;-70
2024/02/13 03:53:24;;;;;;;7.97;6.13;;;5.00;99.90;;;-141.84;100.00;111495.69;5038496;28;20272;-70
2024/02/13 03:55:53;;;;;;;7.70;6.13;;;4.90;99.90;;;-141.84;100.00;113892.16;5039074;28;20221;-70
2024/02/13 03:58:21;;;;;;;7.70;6.50;;;4.80;99.90;;;-141.84;100.00;116023.56;5039786;28;20308;-70
2024/02/13 04:00:49;;;;;;;8.17;6.47;;;4.80;99.90;;;-141.84;100.00;113892.16;5041470;28;20575;-71
2024/02/13 04:03:17;;;;;;;9.10;6.53;;;4.70;99.90;;;-141.84;100.00;114957.72;5041301;28;20206;-70
2024/02/13 04:05:46;;;;;;;7.77;6.23;;;4.70;99.90;;;-141.84;100.00;114158.53;5039817;28;20234;-69
2024/02/13 04:08:14;;;;;;;9.27;6.10;;;4.70;99.90;;;-141.84;100.00;114957.72;5038968;28;20244;-70
2024/02/13 04:10:44;;;;;;;8.83;6.50;;;4.60;99.90;;;-141.84;100.00;117089.69;5039040;28;20239;-70
2024/02/13 04:13:12;;;;;;;9.33;6.50;;;4.60;99.90;;;-141.84;100.00;117089.69;5047350;28;20627;-71
2024/02/13 04:15:40;;;;;;;7.73;6.40;;;4.60;99.90;;;-141.84;100.00;117089.69;5038252;28;20701;-70
2024/02/13 04:18:09;;;;;;;9.33;6.47;;;4.50;99.90;;;-141.84;100.00;117889.44;5038491;28;20651;-70
2024/02/13 04:20:38;;;;;;;9.83;6.77;;;4.50;99.90;;;-141.84;100.00;117089.69;5038888;28;20222;-71
2024/02/13 04:23:07;;;;;;;9.27;6.70;;;4.50;99.90;;;-141.84;100.00;116556.59;5038071;28;20236;-71
2024/02/13 04:25:36;;;;;;;8.07;6.70;;;4.40;99.90;;;-141.84;100.00;117356.25;5028092;28;20709;-71
2024/02/13 04:28:06;;;;;;;9.53;7.13;;;4.40;99.90;;;-141.84;100.00;118956.03;5030926;28;20221;-70
2024/02/13 04:30:40;;;;;;;9.83;7.30;;;4.30;99.90;;;-141.84;100.00;116823.13;5038220;28;20658;-71
2024/02/13 04:33:09;;;;;;;10.47;7.67;;;4.40;99.90;;;-141.84;100.00;117356.25;5039377;28;20221;-66
2024/02/13 04:35:38;;;;;;;10.37;7.13;;;4.30;99.90;;;-141.84;100.00;117622.84;5041726;28;20198;-70
2024/02/13 04:38:07;;;;;;;10.63;7.77;;;4.30;99.90;;;-141.84;100.00;118689.38;5040835;28;20222;-71
2024/02/13 04:40:36;;;;;;;9.43;7.10;;;4.20;99.90;;;-141.84;100.00;119222.75;5046453;28;20244;-71
2024/02/13 04:43:06;;;;;;;10.53;7.93;;;4.20;99.90;;;-141.84;100.00;119222.75;5038462;28;20233;-71
2024/02/13 04:45:35;;;;;;;11.73;8.30;;;4.10;99.90;;;-141.84;100.00;119224.81;5043993;28;20271;-69
2024/02/13 04:48:05;;;;;;;14.57;8.90;;;4.10;99.90;;;-141.84;100.00;119224.81;5044575;28;20641;-71
2024/02/13 04:50:33;;;;;;;11.73;8.50;;;4.10;99.90;;;-141.84;100.00;119224.81;5040052;28;20660;-71
2024/02/13 04:53:02;;;;;;;11.07;9.03;;;4.00;99.90;;;-141.84;100.00;119224.81;5039427;28;20393;-70
2024/02/13 04:55:31;;;;;;;13.10;9.03;;;4.00;99.90;;;-141.84;100.00;119224.81;5005053;28;20831;-70
2024/02/13 04:58:01;;;;;;;11.70;9.30;;;4.00;99.90;;;-141.84;100.00;119224.81;5040556;28;20253;-71
2024/02/13 05:00:36;;;;;;;12.80;8.63;;;4.00;99.90;;;-141.84;100.00;119224.81;5038672;28;20524;-71
2024/02/13 05:03:17;;;;;;;12.03;9.43;;;3.90;99.90;;;-141.84;100.00;119224.81;5038320;28;20194;-70
2024/02/13 05:08:43;;;;;;;13.77;9.80;;;3.90;99.90;;;-141.84;100.00;119224.81;5014342;28;20226;-71
2024/02/13 05:11:13;;;;;;;13.13;9.83;;;3.80;99.90;;;-141.84;100.00;119224.81;5035097;28;20232;-72
2024/02/13 05:13:41;;;;;;;12.80;9.53;;;3.80;99.90;;;-141.84;100.00;119224.81;5042543;28;20249;-71
2024/02/13 05:16:13;;;;;;;13.93;10.07;;;3.80;99.90;;;-141.84;100.00;119224.81;5038702;28;20314;-71
2024/02/13 05:18:41;;;;;;;14.13;9.33;;;3.80;99.90;;;-141.84;100.00;119224.81;5040854;28;20312;-71
2024/02/13 05:21:10;;;;;;;16.67;9.67;;;3.90;99.90;;;-141.84;100.00;119224.81;5040334;28;20700;-71
2024/02/13 05:23:39;;;;;;;13.17;9.77;;;3.80;99.90;;;-141.84;100.00;119224.81;5046406;28;20240;-71
2024/02/13 05:26:08;;;;;;;15.10;9.17;;;3.80;99.90;;;-141.84;100.00;119224.81;5037999;28;20694;-71
2024/02/13 05:28:37;;;;;;;14.40;10.57;;;3.70;99.90;;;-141.84;100.00;119224.81;5037642;28;20661;-71
2024/02/13 05:31:05;;;;;;;14.83;9.80;;;3.70;99.90;;;-141.84;100.00;119224.81;5037350;28;20895;-71
2024/02/13 05:33:36;;;;;;;13.10;10.20;;;3.70;99.90;;;-141.84;100.00;119224.81;5037709;28;20225;-71
2024/02/13 05:36:09;;;;;;;10.83;8.20;;;3.60;99.90;;;-141.84;100.00;119224.81;5038915;28;20189;-71
2024/02/13 05:38:43;;;;;;;13.37;9.53;;;3.60;99.90;;;-141.84;100.00;119224.81;5037464;28;20273;-70
2024/02/13 05:41:12;;;;;;;10.73;7.97;;;3.80;99.90;;;-141.84;100.00;119224.81;5037733;28;20220;-70
2024/02/13 05:43:42;;;;;;;9.83;8.57;;;3.70;99.90;;;-141.84;100.00;119224.81;5045414;28;20764;-71
2024/02/13 05:46:17;;;;;;;14.63;8.97;;;3.60;99.90;;;-141.84;100.00;119224.81;5037410;28;20331;-70
2024/02/13 05:48:49;;;;;;;15.03;8.70;;;3.60;99.90;;;-141.84;100.00;119224.81;5045862;28;20286;-71
2024/02/13 05:51:18;;;;;;;11.70;8.73;;;3.60;99.90;;;-141.84;100.00;119224.81;5037931;28;20267;-71
2024/02/13 05:53:47;;;;;;;11.60;7.83;;;3.70;99.90;;;-141.84;100.00;118422.72;5038167;28;20201;-70
2024/02/13 05:56:15;;;;;;;12.30;8.50;;;3.70;99.90;;;-141.84;100.00;118422.72;5037177;28;20844;-70
2024/02/13 05:58:57;;;;;;;13.30;9.47;;;3.70;99.90;;;-141.84;100.00;117622.84;5037471;28;20728;-71
2024/02/13 06:01:26;;;;;;;11.60;7.93;;;3.70;99.90;;;-141.84;100.00;118689.38;5044262;28;20222;-70
2024/02/13 06:03:58;;;;;;;10.50;7.90;;;3.60;99.90;;;-141.84;100.00;119222.75;5043036;28;20256;-71
2024/02/13 06:06:26;;;;;;;11.07;8.03;;;3.60;99.90;;;-141.84;100.00;118956.03;5040055;28;20241;-70
2024/02/13 06:08:55;;;;;;;12.50;7.80;;;3.70;99.90;;;-141.84;100.00;117622.84;5041865;28;20292;-70
2024/02/13 06:11:25;;;;;;;12.53;8.90;;;3.70;99.90;;;-141.84;100.00;118422.72;5041479;28;20225;-70
2024/02/13 06:13:56;;;;;;;11.87;8.40;;;3.60;99.90;;;-141.84;100.00;119224.81;5044378;28;20222;-70
2024/02/13 06:16:28;;;;;;;14.13;9.67;;;3.60;99.90;;;-141.84;100.00;119224.81;5043490;28;20248;-70
2024/02/13 06:18:58;;;;;;;14.33;9.43;;;3.50;99.90;;;-141.84;100.00;119224.81;5042310;28;20245;-70
2024/02/13 06:21:27;;;;;;;16.13;10.93;;;3.50;99.90;;;-141.84;100.00;119224.81;5042485;28;20280;-70
2024/02/13 06:23:56;;;;;;;14.27;10.03;;;3.50;99.90;;;-141.84;100.00;119224.81;5045076;28;20223;-71
2024/02/13 06:26:29;;;;;;;14.90;10.50;;;3.40;99.90;;;-141.84;100.00;119224.81;5043024;28;20228;-72
2024/02/13 06:28:57;;;;;;;15.93;11.20;;;3.40;99.90;;;-141.84;100.00;119224.81;5040982;28;20225;-71
2024/02/13 06:31:25;;;;;;;15.73;10.43;;;3.40;99.90;;;-141.84;100.00;119224.81;5044005;28;20300;-70
2024/02/13 06:33:54;;;;;;;15.03;10.53;;;3.40;99.90;;;-141.84;100.00;119224.81;5040703;28;20640;-70
2024/02/13 06:36:26;;;;;;;13.97;10.10;;;3.40;99.90;;;-141.84;100.00;119224.81;5033390;28;20212;-71
2024/02/13 06:38:56;;;;;;;14.83;10.83;;;3.40;99.90;;;-141.84;100.00;119224.81;5025082;28;20278;-71
2024/02/13 06:41:25;;;;;;;11.83;9.30;;;3.40;99.90;;;-141.84;100.00;119224.81;5042286;28;20281;-71
2024/02/13 06:43:53;;;;;;;18.87;11.57;;;3.40;99.90;;;-141.84;100.00;119224.81;5041593;28;20221;-71
2024/02/13 06:46:21;;;;;;;15.47;10.57;;;3.40;99.90;;;-141.84;100.00;119224.81;5049064;28;20803;-71
2024/02/13 06:48:52;;;;;;;15.80;10.50;;;3.40;99.90;;;-141.84;100.00;119224.81;5040091;28;20315;-70
2024/02/13 06:51:20;;;;;;;16.23;10.73;;;3.40;99.90;;;-141.84;100.00;119224.81;5037564;28;20426;-70
2024/02/13 06:53:50;;;;;;;15.27;10.00;;;3.40;99.90;;;-141.84;100.00;119222.75;5043178;28;20220;-72
2024/02/13 06:56:18;;;;;;;12.87;10.03;;;3.50;99.90;;;-141.84;100.00;118956.03;5041009;28;20221;-71
2024/02/13 06:58:46;;;;;;;14.30;9.07;;;3.50;99.90;;;-141.84;100.00;118689.38;5045539;28;20282;-71
2024/02/13 07:01:15;;;;;;;12.67;9.80;;;3.60;99.90;;;-141.84;100.00;117356.25;5045696;28;20260;-71
2024/02/13 07:03:44;;;;;;;11.87;9.17;;;3.60;99.90;;;-141.84;100.00;117089.69;5035224;28;20229;-72
2024/02/13 07:06:17;;;;;;;13.20;9.53;;;3.60;99.90;;;-141.84;100.00;117889.44;5046523;28;20319;-71
2024/02/13 07:09:09;;;;;;;15.50;10.27;;;3.60;99.90;;;-141.84;100.00;117622.84;5040921;28;20198;-71
2024/02/13 07:11:37;;;;;;;12.50;10.10;;;3.70;99.90;;;-141.84;100.00;113892.16;5045100;28;20585;-72
2024/02/13 07:14:06;;;;;;;13.20;9.53;;;3.70;99.90;;;-141.84;100.00;112294.34;5049851;28;20251;-71
2024/02/13 07:16:38;;;;;;;17.23;11.43;;;3.80;99.90;;;-141.84;100.00;107770.63;5036182;28;20229;-71
2024/02/13 07:19:09;;;;;;;16.53;11.63;;;3.90;99.90;;;-141.84;100.00;109898.81;5031901;28;20300;-69
2024/02/13 07:21:38;;;;;;;20.07;14.37;;;3.90;99.90;;;-141.84;100.00;113359.50;5042727;28;20282;-70
2024/02/13 07:24:09;;;;;;;21.50;13.03;;;3.90;99.90;;;-141.84;100.00;113093.19;5039047;28;20193;-70
2024/02/13 07:26:37;;;;;;;16.43;12.50;;;4.00;99.90;;;-141.84;100.00;113625.81;5039003;28;20263;-70
2024/02/13 07:29:06;;;;;;;15.80;11.00;;;4.10;99.90;;;-141.84;100.00;114424.91;5050405;28;20235;-70
2024/02/13 07:31:35;;;;;;;13.10;9.17;;;4.10;99.90;;;-141.84;100.00;114158.53;5038180;28;20779;-70
2024/02/13 07:34:04;;;;;;;12.33;9.20;;;4.20;99.90;;;-141.84;100.00;111761.88;5041213;28;20228;-69
2024/02/13 07:36:32;;;;;;;10.90;9.13;;;4.30;99.90;;;-141.84;100.00;111495.69;5042108;28;20253;-69
2024/02/13 07:39:01;;;;;;;11.87;8.70;;;4.40;99.90;;;-141.84;100.00;108302.56;5042976;28;20709;-70
2024/02/13 07:41:34;;;;;;;13.30;8.70;;;4.50;99.90;;;-141.84;100.00;105909.34;5038994;28;20218;-70
2024/02/13 07:44:03;;;;;;;11.00;7.93;;;4.60;99.90;;;-141.84;100.00;105377.72;5041300;28;20224;-69
2024/02/13 07:46:32;;;;;;;12.10;8.33;;;4.70;99.90;;;-141.84;98.27;101923.81;5037184;28;20268;-71
2024/02/13 07:49:00;;;;;;;14.03;8.60;;;4.70;99.90;;;-141.84;95.03;94759.69;5041068;28;20669;-71
2024/02/13 07:51:29;;;;;;;9.87;7.90;;;4.80;99.90;;;-141.84;92.85;86814.44;5039315;28;20597;-72
2024/02/13 07:53:57;;;;;;;10.80;7.33;;;4.90;99.90;;;-141.84;93.84;90255.47;5041131;28;20221;-72
2024/02/13 07:56:28;;;;;;;12.20;7.87;;;5.00;99.90;;;-141.84;92.96;87079.03;5041604;28;20655;-73
2024/02/13 07:58:59;;;;;;;10.77;8.37;;;5.10;99.90;;;-141.84;89.23;75981.22;5041740;28;20240;-73
2024/02/13 08:01:28;;;;;;;7.80;6.60;;;5.20;99.90;;;-141.84;88.75;71497.94;5033677;28;20237;-74
2024/02/13 08:03:56;;;;;;;9.37;7.63;;;5.30;99.90;;;-141.84;90.39;77300.78;5043611;28;20259;-73
2024/02/13 08:06:24;;;;;;;9.90;7.57;;;5.40;99.90;;;-141.84;89.87;77564.72;5045675;28;20221;-73
2024/02/13 08:08:53;;;;;;;10.17;7.70;;;5.40;99.90;;;-141.84;88.83;73343.38;5037504;28;20688;-75
2024/02/13 08:11:22;;;;;;;10.50;7.43;;;5.60;99.90;;;-141.84;84.18;48108.81;5057225;28;20270;-72
2024/02/13 08:13:54;;;;;;;12.23;7.87;;;5.70;99.90;;;-141.84;83.60;44703.94;5047661;28;20279;-73
2024/02/13 08:16:29;;;;;;;8.93;7.50;;;5.70;99.90;;;-141.84;83.95;48108.81;5033789;28;20775;-74
2024/02/13 08:18:57;;;;;;;9.03;7.40;;;5.80;99.90;;;-141.84;81.74;31917.00;5010552;28;20312;-74
2024/02/13 08:21:29;;;;;;;9.37;7.20;;;6.00;99.90;;;-141.84;79.29;21924.00;5028734;28;20204;-75
2024/02/13 08:23:57;;;;;;;10.17;7.40;;;6.00;99.90;;;-141.84;78.59;20309.75;5057176;28;20289;-74
2024/02/13 08:26:29;;;;;;;10.83;6.97;;;6.20;99.90;;;-141.84;76.48;18801.84;5035451;28;20241;-74
2024/02/13 08:28:57;;;;;;;9.87;6.77;;;6.30;99.90;;;-141.84;78.53;20384.97;5043142;28;20236;-73
2024/02/13 08:31:30;;;;;;;11.03;7.30;;;6.40;99.90;;;-141.84;77.58;19594.34;5036738;28;20260;-74
2024/02/13 08:33:58;;;;;;;8.47;6.17;;;6.60;99.90;;;-141.84;73.39;18298.00;5038631;28;20276;-74
2024/02/13 08:36:29;;;;;;;7.97;6.30;;;6.70;99.90;;;-141.84;72.65;18186.25;5038867;28;20257;-75
2024/02/13 08:38:57;;;;;;;9.53;6.53;;;6.70;99.90;;;-141.84;71.37;18139.53;5045344;28;20189;-75
2024/02/13 08:41:31;;;;;;;8.63;5.97;;;6.70;99.90;;;-141.84;71.32;18155.78;5028319;28;20225;-74
2024/02/13 08:43:59;;;;;;;7.87;6.47;;;6.50;99.90;;;-141.84;72.25;18190.31;5043236;28;20229;-74
2024/02/13 08:46:31;;;;;;;9.03;6.43;;;6.60;99.90;;;-141.84;71.05;18111.09;5044925;28;20221;-74
2024/02/13 08:49:00;;;;;;;10.27;7.10;;;6.70;99.90;;;-141.84;71.38;18186.25;5048413;28;20795;-74
2024/02/13 08:51:30;;;;;;;11.13;6.77;;;6.70;99.90;;;-141.84;71.00;18180.16;5048263;28;20236;-74
2024/02/13 08:54:05;;;;;;;10.70;6.57;;;6.80;99.90;;;-141.84;70.38;18143.59;5054384;28;20186;-74
2024/02/13 08:56:36;;;;;;;9.43;6.20;;;6.90;99.90;;;-141.84;69.54;18143.59;5042438;28;20206;-74
2024/02/13 08:59:09;;;;;;;10.47;6.77;;;7.00;99.90;;;-141.84;70.06;18147.66;5040263;28;20275;-73
2024/02/13 09:01:38;;;;;;;10.17;6.57;;;6.90;99.90;;;-141.84;69.90;18176.09;5040408;28;20218;-73
2024/02/13 09:04:10;;;;;;;10.43;6.63;;;6.90;99.90;;;-141.84;70.06;18143.59;5040101;28;20232;-74
2024/02/13 09:06:38;;;;;;;9.47;6.47;;;7.00;99.90;;;-141.84;70.02;18202.50;5051838;28;20241;-74
2024/02/13 09:09:11;;;;;;;8.23;6.70;;;7.10;99.90;;;-141.84;69.89;18184.22;5056116;28;20202;-70
2024/02/13 09:11:40;;;;;;;7.83;6.40;;;7.10;99.90;;;-141.84;69.55;18196.41;5042037;28;20217;-74
2024/02/13 09:14:11;;;;;;;8.67;6.23;;;7.10;99.90;;;-141.84;69.95;18200.47;5036325;28;20226;-74
2024/02/13 09:16:41;;;;;;;11.20;6.73;;;7.00;99.90;;;-141.84;70.11;18188.28;4989665;28;20222;-74
2024/02/13 09:19:10;;;;;;;9.60;6.90;;;7.10;99.90;;;-141.84;68.77;18172.03;5039914;28;20280;-74
2024/02/13 09:21:38;;;;;;;8.73;7.03;;;7.20;99.90;;;-141.84;69.08;18208.59;5033150;28;20230;-74
2024/02/13 09:24:14;;;;;;;7.37;6.67;;;7.20;99.90;;;-141.84;68.69;18210.63;5059244;28;20213;-70
2024/02/13 09:26:42;;;;;;;9.00;7.13;;;7.30;99.90;;;-141.84;67.56;18184.22;5042406;28;20256;-74
2024/02/13 09:29:12;;;;;;;9.60;7.07;;;7.40;99.90;;;-141.84;67.65;18220.78;5008735;28;20229;-73
2024/02/13 09:31:43;;;;;;;10.73;7.07;;;7.50;99.90;;;-141.84;67.10;18226.88;5046042;28;20925;-72
2024/02/13 09:34:15;;;;;;;10.57;7.27;;;7.60;99.90;;;-141.84;66.71;18194.38;5005435;28;20280;-73
2024/02/13 09:36:46;;;;;;;9.50;7.00;;;7.50;99.90;;;-141.84;66.56;18149.69;5037339;28;20235;-73
2024/02/13 09:39:15;;;;;;;8.97;6.53;;;7.60;99.90;;;-141.84;67.02;18214.69;5038560;28;20194;-72
2024/02/13 09:41:45;;;;;;;9.20;6.93;;;7.70;99.90;;;-141.84;66.60;18208.59;5061697;28;20272;-73
2024/02/13 09:44:17;;;;;;;9.90;7.00;;;7.80;99.90;;;-141.84;66.02;18174.06;5053262;28;20272;-74
2024/02/13 09:46:52;;;;;;;12.00;7.83;;;7.80;99.90;;;-141.84;64.63;18163.91;5046006;28;20225;-73
2024/02/13 09:49:23;;;;;;;8.10;6.83;;;7.90;99.90;;;-141.84;65.46;18192.34;5042556;28;20225;-73
2024/02/13 09:51:58;;;;;;;8.97;7.10;;;7.80;99.90;;;-141.84;64.29;18237.06;5043902;28;20596;-74
2024/02/13 09:54:31;;;;;;;7.80;6.60;;;7.80;99.90;;;-141.84;64.69;18194.38;5037355;28;20241;-73
2024/02/13 09:57:01;;;;;;;9.73;7.03;;;7.90;99.90;;;-141.84;63.71;18216.72;5046750;28;20201;-75
2024/02/13 09:59:30;;;;;;;9.90;7.77;;;7.90;99.90;;;-141.84;62.65;18200.47;5057103;28;20251;-74
2024/02/13 10:02:01;;;;;;;11.03;8.27;;;7.80;99.90;;;-141.84;63.73;18206.56;5048944;28;20300;-72
2024/02/13 10:04:30;;;;;;;10.17;7.57;;;8.00;99.90;;;-141.84;64.36;18245.19;5047889;28;20236;-73
2024/02/13 10:07:04;;;;;;;9.70;7.83;;;8.00;99.90;;;-141.84;63.23;18232.97;5046407;28;20226;-73
2024/02/13 10:09:36;;;;;;;12.83;7.73;;;8.00;99.90;;;-141.84;63.81;18206.56;5045208;28;20595;-73
2024/02/13 10:12:12;;;;;;;9.77;7.83;;;8.10;99.90;;;-141.84;62.43;18245.19;5046306;28;20206;-73